createdAt,value
2019-06-08T00:00:49.780Z,85.4
2019-06-08T00:02:49.817Z,85.0
2019-06-08T00:04:50.492Z,82.9
2019-06-08T00:06:50.998Z,87.1
2019-06-08T00:08:50.139Z,90.5
2019-06-08T00:10:50.187Z,90.8
2019-06-08T00:12:50.258Z,90.5
2019-06-08T00:14:50.363Z,91.1
2019-06-08T00:16:50.670Z,92.0
2019-06-08T00:18:50.748Z,91.1
2019-06-08T00:20:49.875Z,90.2
2019-06-08T00:22:49.950Z,91.8
2019-06-08T00:24:50.115Z,90.6
2019-06-08T00:26:50.403Z,93.3
2019-06-08T00:28:50.451Z,93.2
2019-06-08T00:30:50.641Z,91.9
2019-06-08T00:32:50.970Z,92.6
2019-06-08T00:34:50.704Z,90.6
2019-06-08T00:36:49.981Z,93.4
2019-06-08T00:38:50.076Z,91.3
2019-06-08T00:40:50.226Z,90.2
2019-06-08T00:42:50.332Z,91.0
2019-06-08T00:44:50.458Z,90.9
2019-06-08T00:46:49.824Z,93.8
2019-06-08T00:48:50.006Z,93.2
2019-06-08T00:50:50.285Z,94.2
2019-06-08T00:52:50.339Z,94.4
2019-06-08T00:54:50.501Z,93.9
2019-06-08T00:56:51.061Z,96.3
2019-06-08T00:58:50.275Z,96.9
2019-06-08T01:00:50.500Z,98.1
2019-06-08T01:02:50.578Z,96.6
2019-06-08T01:04:50.251Z,96.1
2019-06-08T01:06:50.608Z,96.4
2019-06-08T01:08:50.724Z,96.7
2019-06-08T01:10:50.749Z,96.2
2019-06-08T01:12:49.990Z,95.6
2019-06-08T01:14:50.140Z,96.0
2019-06-08T01:16:50.416Z,96.1
2019-06-08T01:18:50.566Z,97.4
2019-06-08T01:20:49.875Z,96.3
2019-06-08T01:22:50.137Z,97.2
2019-06-08T01:24:50.434Z,97.2
2019-06-08T01:26:50.752Z,93.5
2019-06-08T01:28:49.872Z,93.4
2019-06-08T01:30:50.042Z,91.6
2019-06-08T01:32:50.155Z,91.1
2019-06-08T01:34:50.679Z,91.3
2019-06-08T01:36:49.973Z,90.0
2019-06-08T01:38:50.059Z,90.0
2019-06-08T01:40:50.158Z,90.6
2019-06-08T01:42:50.342Z,90.3
2019-06-08T01:44:50.444Z,90.6
2019-06-08T01:46:50.646Z,90.7
2019-06-08T01:48:50.718Z,90.4
2019-06-08T01:50:50.829Z,90.1
2019-06-08T01:52:49.958Z,87.3
2019-06-08T01:54:49.986Z,85.6
2019-06-08T01:56:50.255Z,87.3
2019-06-08T01:58:50.344Z,88.1
2019-06-08T02:00:50.506Z,87.3
2019-06-08T02:02:50.639Z,86.2
2019-06-08T02:04:50.233Z,87.2
2019-06-08T02:06:50.578Z,86.6
2019-06-08T02:08:49.900Z,86.1
2019-06-08T02:10:49.888Z,85.2
2019-06-08T02:12:49.997Z,87.2
2019-06-08T02:14:50.113Z,87.2
2019-06-08T02:16:50.299Z,86.9
2019-06-08T02:18:51.702Z,84.8
2019-06-08T02:20:49.781Z,85.8
2019-06-08T02:22:49.895Z,87.3
2019-06-08T02:24:49.910Z,88.7
2019-06-08T02:26:50.329Z,87.6
2019-06-08T02:28:50.492Z,87.6
2019-06-08T02:30:50.670Z,85.3
2019-06-08T02:32:50.797Z,85.6
2019-06-08T02:34:50.518Z,88.0
2019-06-08T02:36:49.824Z,85.7
2019-06-08T02:38:49.992Z,85.3
2019-06-08T02:40:50.040Z,81.8
2019-06-08T02:42:50.303Z,82.8
2019-06-08T02:44:50.397Z,81.7
2019-06-08T02:46:50.622Z,82.4
2019-06-08T02:49:05.400Z,81.1
2019-06-08T02:50:49.869Z,81.2
2019-06-08T02:52:49.945Z,79.7
2019-06-08T02:54:50.119Z,80.5
2019-06-08T02:56:50.389Z,80.8
2019-06-08T02:58:50.420Z,80.8
2019-06-08T03:00:50.458Z,80.6
2019-06-08T03:02:50.581Z,78.2
2019-06-08T03:04:50.133Z,78.9
2019-06-08T03:06:50.457Z,79.0
2019-06-08T03:08:50.540Z,79.3
2019-06-08T03:10:50.683Z,80.6
2019-06-08T03:12:49.805Z,80.4
2019-06-08T03:14:49.971Z,81.0
2019-06-08T03:16:50.244Z,78.9
2019-06-08T03:18:50.442Z,79.5
2019-06-08T03:20:50.579Z,78.8
2019-06-08T03:22:50.715Z,81.7
2019-06-08T03:24:49.845Z,82.8
2019-06-08T03:26:50.217Z,83.3
2019-06-08T03:28:50.317Z,82.6
2019-06-08T03:30:55.699Z,85.3
2019-06-08T03:32:57.723Z,83.5
2019-06-08T03:34:57.800Z,83.3
2019-06-08T03:36:58.163Z,83.8
2019-06-08T03:38:50.357Z,84.8
2019-06-08T03:40:50.403Z,85.0
2019-06-08T03:42:59.864Z,84.8
2019-06-08T03:44:50.726Z,83.9
2019-06-08T03:46:49.962Z,83.8
2019-06-08T03:48:50.113Z,84.0
2019-06-08T03:50:50.244Z,84.3
2019-06-08T03:52:50.375Z,83.4
2019-06-08T03:54:50.491Z,83.0
2019-06-08T03:56:49.946Z,83.0
2019-06-08T03:58:50.197Z,83.2
2019-06-08T04:00:50.466Z,84.7
2019-06-08T04:02:50.712Z,83.0
2019-06-08T04:04:50.586Z,80.5
2019-06-08T04:06:50.509Z,82.1
2019-06-08T04:08:50.609Z,84.8
2019-06-08T04:10:50.755Z,82.8
2019-06-08T04:12:50.579Z,85.3
2019-06-08T04:14:50.927Z,85.3
2019-06-08T04:16:50.750Z,82.3
2019-06-08T04:18:50.781Z,83.7
2019-06-08T04:20:52.091Z,84.9
2019-06-08T04:22:51.041Z,83.3
2019-06-08T04:24:51.080Z,83.1
2019-06-08T04:26:51.194Z,83.2
2019-06-08T04:28:50.394Z,83.6
2019-06-08T04:30:50.582Z,82.0
2019-06-08T04:32:50.683Z,81.5
2019-06-08T04:34:50.486Z,83.0
2019-06-08T04:36:50.920Z,83.0
2019-06-08T04:38:50.675Z,78.8
2019-06-08T04:40:50.727Z,79.8
2019-06-08T04:42:51.559Z,79.1
2019-06-08T04:44:50.700Z,82.0
2019-06-08T04:46:50.073Z,80.3
2019-06-08T04:48:50.721Z,79.7
2019-06-08T04:50:50.266Z,79.2
2019-06-08T04:52:50.518Z,80.8
2019-06-08T04:54:50.593Z,83.0
2019-06-08T04:56:50.113Z,83.0
2019-06-08T04:58:51.899Z,82.6
2019-06-08T05:00:51.471Z,82.1
2019-06-08T05:02:51.821Z,80.9
2019-06-08T05:04:50.498Z,83.1
2019-06-08T05:06:50.113Z,82.5
2019-06-08T05:08:50.332Z,84.4
2019-06-08T05:10:50.452Z,81.0
2019-06-08T05:12:50.794Z,82.5
2019-06-08T05:14:49.808Z,81.3
2019-06-08T05:16:50.275Z,81.3
2019-06-08T05:18:50.359Z,83.9
2019-06-08T05:20:51.996Z,82.8
2019-06-08T05:22:50.292Z,82.8
2019-06-08T05:24:50.632Z,81.1
2019-06-08T05:26:50.123Z,82.1
2019-06-08T05:28:50.311Z,80.7
2019-06-08T05:30:50.395Z,80.7
2019-06-08T05:32:50.448Z,82.5
2019-06-08T05:34:50.223Z,85.1
2019-06-08T05:36:50.565Z,84.2
2019-06-08T05:38:50.734Z,82.0
2019-06-08T05:40:50.321Z,83.7
2019-06-08T05:42:50.507Z,84.0
2019-06-08T05:44:50.785Z,83.7
2019-06-08T05:46:50.471Z,83.2
2019-06-08T05:48:50.849Z,86.0
2019-06-08T05:51:04.827Z,85.7
2019-06-08T05:52:50.773Z,82.6
2019-06-08T05:54:50.602Z,85.1
2019-06-08T05:56:50.865Z,82.7
2019-06-08T05:58:50.838Z,82.7
2019-06-08T06:00:51.054Z,84.1
2019-06-08T06:02:51.357Z,84.3
2019-06-08T06:04:54.309Z,86.5
2019-06-08T06:06:51.369Z,85.6
2019-06-08T06:08:51.381Z,84.4
2019-06-08T06:10:51.779Z,84.5
2019-06-08T06:12:51.452Z,84.0
2019-06-08T06:14:51.689Z,84.8
2019-06-08T06:16:51.176Z,84.6
2019-06-08T06:18:52.717Z,86.2
2019-06-08T06:20:49.819Z,84.7
2019-06-08T06:22:52.126Z,85.7
2019-06-08T06:24:51.998Z,85.4
2019-06-08T06:26:50.155Z,84.8
2019-06-08T06:28:51.662Z,86.7
2019-06-08T06:30:52.398Z,84.1
2019-06-08T06:32:51.999Z,83.6
2019-06-08T06:34:50.496Z,83.6
2019-06-08T06:36:52.392Z,81.2
2019-06-08T06:38:50.524Z,81.9
2019-06-08T06:40:50.556Z,82.1
2019-06-08T06:42:52.449Z,79.3
2019-06-08T06:44:52.696Z,80.0
2019-06-08T06:46:50.525Z,78.4
2019-06-08T06:48:50.812Z,80.0
2019-06-08T06:50:50.802Z,79.8
2019-06-08T06:52:51.109Z,78.3
2019-06-08T06:54:52.893Z,78.1
2019-06-08T06:56:52.213Z,79.2
2019-06-08T06:58:51.715Z,82.0
2019-06-08T07:00:49.899Z,79.9
2019-06-08T07:02:50.413Z,82.4
2019-06-08T07:04:50.407Z,79.3
2019-06-08T07:06:52.147Z,79.2
2019-06-08T07:08:50.742Z,80.2
2019-06-08T07:10:51.166Z,79.3
2019-06-08T07:12:51.202Z,80.7
2019-06-08T07:14:52.848Z,79.3
2019-06-08T07:16:50.521Z,78.9
2019-06-08T07:18:50.671Z,78.1
2019-06-08T07:20:50.766Z,76.4
2019-06-08T07:22:50.612Z,76.4
2019-06-08T07:24:50.667Z,76.4
2019-06-08T07:26:50.815Z,76.8
2019-06-08T07:28:55.493Z,76.7
2019-06-08T07:30:51.031Z,77.7
2019-06-08T07:32:51.345Z,71.9
2019-06-08T07:34:53.323Z,74.9
2019-06-08T07:36:51.648Z,67
2019-06-08T07:38:51.702Z,70.6
2019-06-08T07:40:50.784Z,70.4
2019-06-08T07:42:56.950Z,67.4
2019-06-08T07:44:51.156Z,67.3
2019-06-08T07:46:51.748Z,68.4
2019-06-08T07:48:52.210Z,67.2
2019-06-08T07:50:50.672Z,68.6
2019-06-08T07:52:54.529Z,70.4
2019-06-08T07:54:54.886Z,70.6
2019-06-08T07:56:53.149Z,66.9
2019-06-08T07:58:55.122Z,67.8
2019-06-08T08:01:08.272Z,65.3
2019-06-08T08:02:50.614Z,65.7
2019-06-08T08:04:50.863Z,68.1
2019-06-08T08:06:50.740Z,67.0
2019-06-08T08:08:52.496Z,64.6
2019-06-08T08:10:50.728Z,65.0
2019-06-08T08:12:51.230Z,65.7
2019-06-08T08:14:53.168Z,63.3
2019-06-08T08:16:51.361Z,63.2
2019-06-08T08:18:51.490Z,64.6
2019-06-08T08:20:51.530Z,64.5
2019-06-08T08:23:09.362Z,61.4
2019-06-08T08:25:05.232Z,63.1
2019-06-08T08:27:03.768Z,63.6
2019-06-08T08:29:03.159Z,59.8
2019-06-08T08:30:57.954Z,59.4
2019-06-08T08:33:03.082Z,58.8
2019-06-08T08:34:53.889Z,59.2
2019-06-08T08:36:53.877Z,58.5
2019-06-08T08:38:52.161Z,58.2
2019-06-08T08:41:03.813Z,54.8
2019-06-08T08:42:53.929Z,56.6
2019-06-08T08:44:53.956Z,56.1
2019-06-08T08:46:58.703Z,56.0
2019-06-08T08:48:52.723Z,53.9
2019-06-08T08:50:52.672Z,53.7
2019-06-08T08:52:52.576Z,54.6
2019-06-08T08:54:52.686Z,53.4
2019-06-08T08:57:05.338Z,53.7
2019-06-08T08:58:52.714Z,53.2
2019-06-08T09:01:01.312Z,53.0
2019-06-08T09:03:33.405Z,52.3
2019-06-08T09:04:55.391Z,52.1
2019-06-08T09:06:57.978Z,52.1
2019-06-08T09:09:01.646Z,53.5
2019-06-08T09:10:55.168Z,51.3
2019-06-08T09:13:04.495Z,51.4
2019-06-08T09:15:02.104Z,51.7
2019-06-08T09:16:53.803Z,51.4
2019-06-08T09:18:53.985Z,52.8
2019-06-08T09:20:54.326Z,51.9
2019-06-08T09:23:21.749Z,52.2
2019-06-08T09:25:02.995Z,53.5
2019-06-08T09:26:49.977Z,51.3
2019-06-08T09:28:52.740Z,50.8
2019-06-08T09:30:49.857Z,49.4
2019-06-08T09:32:50.072Z,51
2019-06-08T09:34:52.867Z,43.1
2019-06-08T09:36:50.414Z,45.5
2019-06-08T09:39:05.740Z,47.7
2019-06-08T09:40:50.404Z,47.1
2019-06-08T09:43:13.295Z,47.1
2019-06-08T09:44:50.168Z,47.1
2019-06-08T09:46:50.450Z,46.7
2019-06-08T09:48:50.620Z,47.4
2019-06-08T09:50:50.810Z,47.4
2019-06-08T09:53:33.965Z,47.2
2019-06-08T09:54:50.464Z,42.9
2019-06-08T09:56:50.799Z,42.4
2019-06-08T09:58:52.045Z,46
2019-06-08T10:00:50.153Z,46
2019-06-08T10:02:50.403Z,45
2019-06-08T10:04:50.129Z,45
2019-06-08T10:06:50.408Z,44
2019-06-08T10:08:50.666Z,44
2019-06-08T10:10:50.753Z,43
2019-06-08T10:12:49.968Z,44
2019-06-08T10:14:50.111Z,43
2019-06-08T10:16:50.450Z,44
2019-06-08T10:18:52.065Z,44
2019-06-08T10:20:50.212Z,44
2019-06-08T10:22:50.953Z,44
2019-06-08T10:24:49.994Z,44
2019-06-08T10:26:50.361Z,44
2019-06-08T10:28:51.733Z,44
2019-06-08T10:30:49.824Z,45
2019-06-08T10:32:51.405Z,43
2019-06-08T10:34:50.014Z,44
2019-06-08T10:36:50.348Z,44
2019-06-08T10:38:50.515Z,44
2019-06-08T10:40:50.705Z,44
2019-06-08T10:42:49.850Z,44
2019-06-08T10:44:50.031Z,44
2019-06-08T10:46:50.509Z,44
2019-06-08T10:48:50.746Z,43
2019-06-08T10:50:49.901Z,43
2019-06-08T10:52:50.116Z,43
2019-06-08T10:54:50.287Z,43
2019-06-08T10:56:50.624Z,43
2019-06-08T10:58:50.754Z,42
2019-06-08T11:00:49.820Z,42
2019-06-08T11:02:49.982Z,42
2019-06-08T11:04:50.521Z,41
2019-06-08T11:06:50.100Z,42
2019-06-08T11:08:50.308Z,42
2019-06-08T11:10:50.466Z,42
2019-06-08T11:12:50.734Z,42
2019-06-08T11:14:49.834Z,41
2019-06-08T11:16:50.278Z,42
2019-06-08T11:18:51.685Z,42
2019-06-08T11:20:50.744Z,41
2019-06-08T11:22:50.631Z,41
2019-06-08T11:24:50.784Z,41
2019-06-08T11:26:49.912Z,40
2019-06-08T11:28:51.770Z,41
2019-06-08T11:30:49.883Z,41
2019-06-08T11:32:50.064Z,41
2019-06-08T11:34:50.691Z,40
2019-06-08T11:36:52.269Z,41
2019-06-08T11:38:50.454Z,41
2019-06-08T11:40:50.643Z,40
2019-06-08T11:42:49.811Z,41
2019-06-08T11:44:51.871Z,41
2019-06-08T11:46:50.354Z,41
2019-06-08T11:48:50.463Z,41
2019-06-08T11:50:50.592Z,41
2019-06-08T11:52:50.735Z,41
2019-06-08T11:54:50.707Z,41
2019-06-08T11:56:49.927Z,40
2019-06-08T11:58:50.019Z,41
2019-06-08T12:00:50.104Z,40
2019-06-08T12:02:50.280Z,40
2019-06-08T12:04:49.924Z,40
2019-06-08T12:06:50.106Z,40
2019-06-08T12:08:50.140Z,40
2019-06-08T12:10:50.369Z,40
2019-06-08T12:12:50.494Z,41
2019-06-08T12:14:50.570Z,39
2019-06-08T12:16:49.845Z,40
2019-06-08T12:18:49.993Z,39
2019-06-08T12:20:50.008Z,39
2019-06-08T12:22:50.082Z,40
2019-06-08T12:24:50.292Z,39
2019-06-08T12:27:33.589Z,40
2019-06-08T12:28:49.918Z,40
2019-06-08T12:30:50.090Z,41
2019-06-08T12:32:50.292Z,39
2019-06-08T12:34:49.818Z,38
2019-06-08T12:36:50.060Z,39
2019-06-08T12:38:50.186Z,39
2019-06-08T12:40:50.282Z,39
2019-06-08T12:42:50.415Z,39
2019-06-08T12:44:50.622Z,39
2019-06-08T12:46:49.942Z,40
2019-06-08T12:48:50.017Z,40
2019-06-08T12:50:50.141Z,40
2019-06-08T12:52:50.277Z,39
2019-06-08T12:55:23.114Z,39
2019-06-08T12:56:50.490Z,39
2019-06-08T12:58:50.622Z,39
2019-06-08T13:00:50.787Z,38
2019-06-08T13:02:51.359Z,38
2019-06-08T13:04:49.893Z,38
2019-06-08T13:06:50.220Z,37
2019-06-08T13:08:50.260Z,37
2019-06-08T13:10:50.367Z,38
2019-06-08T13:12:50.502Z,37
2019-06-08T13:14:50.969Z,37
2019-06-08T13:16:53.546Z,37
2019-06-08T13:18:50.633Z,37
2019-06-08T13:20:52.226Z,37
2019-06-08T13:22:50.439Z,37
2019-06-08T13:24:50.545Z,37
2019-06-08T13:26:51.203Z,37
2019-06-08T13:28:50.329Z,37
2019-06-08T13:30:50.495Z,37
2019-06-08T13:32:50.758Z,37
2019-06-08T13:34:50.765Z,37
2019-06-08T13:36:50.067Z,37
2019-06-08T13:38:50.228Z,37
2019-06-08T13:40:50.402Z,37
2019-06-08T13:42:51.686Z,37
2019-06-08T13:44:50.701Z,37
2019-06-08T13:46:49.929Z,37
2019-06-08T13:48:50.118Z,35
2019-06-08T13:50:52.827Z,36
2019-06-08T13:52:49.987Z,35
2019-06-08T13:54:50.042Z,35
2019-06-08T13:56:51.070Z,36
2019-06-08T13:58:50.117Z,36
2019-06-08T14:00:50.259Z,36
2019-06-08T14:02:50.458Z,36
2019-06-08T14:04:50.075Z,36
2019-06-08T14:06:51.008Z,36
2019-06-08T14:08:50.283Z,36
2019-06-08T14:10:50.405Z,36
2019-06-08T14:12:50.678Z,36
2019-06-08T14:14:49.814Z,36
2019-06-08T14:16:50.999Z,36
2019-06-08T14:18:50.115Z,36
2019-06-08T14:20:50.170Z,37
2019-06-08T14:22:50.895Z,37
2019-06-08T14:24:50.036Z,36
2019-06-08T14:26:50.184Z,36
2019-06-08T14:28:50.908Z,36
2019-06-08T14:30:50.141Z,36
2019-06-08T14:32:50.262Z,36
2019-06-08T14:34:50.607Z,35
2019-06-08T14:36:49.853Z,36
2019-06-08T14:38:50.011Z,36
2019-06-08T14:40:50.092Z,36
2019-06-08T14:42:50.245Z,36
2019-06-08T14:44:50.416Z,37
2019-06-08T14:46:50.592Z,36
2019-06-08T14:48:50.667Z,37
2019-06-08T14:50:50.744Z,37
2019-06-08T14:52:50.898Z,37
2019-06-08T14:54:51.718Z,37
2019-06-08T14:56:49.979Z,36
2019-06-08T14:58:50.158Z,36
2019-06-08T15:00:50.313Z,36
2019-06-08T15:02:50.461Z,36
2019-06-08T15:04:50.079Z,35
2019-06-08T15:06:50.376Z,36
2019-06-08T15:08:50.808Z,36
2019-06-08T15:10:50.243Z,36
2019-06-08T15:12:53.974Z,36
2019-06-08T15:14:50.001Z,36
2019-06-08T15:16:50.421Z,36
2019-06-08T15:18:50.564Z,36
2019-06-08T15:20:50.582Z,35
2019-06-08T15:22:50.619Z,35
2019-06-08T15:24:50.727Z,35
2019-06-08T15:26:49.983Z,35
2019-06-08T15:28:50.124Z,35
2019-06-08T15:30:50.216Z,35
2019-06-08T15:32:50.339Z,35
2019-06-08T15:34:51.385Z,35
2019-06-08T15:36:50.719Z,35
2019-06-08T15:38:49.841Z,35
2019-06-08T15:40:49.973Z,35
2019-06-08T15:42:50.151Z,35
2019-06-08T15:44:50.349Z,34
2019-06-08T15:46:50.648Z,34
2019-06-08T15:48:49.871Z,34
2019-06-08T15:50:49.977Z,34
2019-06-08T15:52:50.021Z,34
2019-06-08T15:54:50.186Z,34
2019-06-08T15:56:52.712Z,35
2019-06-08T15:58:49.824Z,35
2019-06-08T16:00:49.944Z,35
2019-06-08T16:02:50.059Z,34
2019-06-08T16:04:50.504Z,34
2019-06-08T16:06:49.940Z,34
2019-06-08T16:08:50.029Z,34
2019-06-08T16:10:50.153Z,33
2019-06-08T16:12:50.390Z,34
2019-06-08T16:14:50.517Z,34
2019-06-08T16:16:49.893Z,34
2019-06-08T16:18:50.028Z,34
2019-06-08T16:20:50.229Z,34
2019-06-08T16:22:50.328Z,33
2019-06-08T16:24:50.526Z,33
2019-06-08T16:26:54.083Z,33
2019-06-08T16:28:50.219Z,33
2019-06-08T16:30:50.279Z,34
2019-06-08T16:32:50.429Z,33
2019-06-08T16:34:50.198Z,33
2019-06-08T16:36:50.883Z,33
2019-06-08T16:38:53.380Z,34
2019-06-08T16:40:50.533Z,34
2019-06-08T16:42:50.577Z,33
2019-06-08T16:44:50.703Z,33
2019-06-08T16:46:50.079Z,33
2019-06-08T16:48:50.145Z,32
2019-06-08T16:50:50.248Z,33
2019-06-08T16:52:50.392Z,33
2019-06-08T16:54:50.506Z,33
2019-06-08T16:56:49.902Z,34
2019-06-08T16:58:49.932Z,33
2019-06-08T17:00:50.071Z,33
2019-06-08T17:02:50.132Z,33
2019-06-08T17:04:50.906Z,32
2019-06-08T17:06:50.498Z,33
2019-06-08T17:08:50.594Z,32
2019-06-08T17:10:50.620Z,32
2019-06-08T17:12:50.759Z,32
2019-06-08T17:14:49.932Z,28.0
2019-06-08T17:16:50.311Z,28.9
2019-06-08T17:18:50.471Z,30.1
2019-06-08T17:20:50.649Z,30.0
2019-06-08T17:22:49.784Z,30.2
2019-06-08T17:24:49.980Z,31.9
2019-06-08T17:26:50.514Z,31.3
2019-06-08T17:28:50.714Z,31.2
2019-06-08T17:30:50.717Z,31.7
2019-06-08T17:32:49.825Z,32.7
2019-06-08T17:34:50.434Z,32.7
2019-06-08T17:36:50.748Z,32.6
2019-06-08T17:38:49.897Z,32.6
2019-06-08T17:40:50.074Z,33.5
2019-06-08T17:42:50.472Z,33.1
2019-06-08T17:44:50.632Z,32.8
2019-06-08T17:46:49.937Z,33.6
2019-06-08T17:48:50.136Z,33.4
2019-06-08T17:50:50.273Z,35.2
2019-06-08T17:52:50.377Z,34.5
2019-06-08T17:54:50.524Z,34.8
2019-06-08T17:56:49.848Z,35.4
2019-06-08T17:58:50.041Z,34.8
2019-06-08T18:00:50.221Z,35.2
2019-06-08T18:02:50.388Z,35.7
2019-06-08T18:04:49.850Z,35.3
2019-06-08T18:06:50.175Z,36.0
2019-06-08T18:08:50.302Z,36.5
2019-06-08T18:10:50.390Z,35.8
2019-06-08T18:12:50.450Z,35.7
2019-06-08T18:14:50.603Z,37.2
2019-06-08T18:16:49.898Z,37.0
2019-06-08T18:18:50.119Z,37.0
2019-06-08T18:20:52.633Z,37.3
2019-06-08T18:22:50.733Z,37.3
2019-06-08T18:24:50.774Z,37.0
2019-06-08T18:26:49.959Z,37.5
2019-06-08T18:28:50.076Z,36.9
2019-06-08T18:30:50.144Z,36.9
2019-06-08T18:32:50.285Z,36.8
2019-06-08T18:34:49.866Z,37.8
2019-06-08T18:36:50.242Z,37.9
2019-06-08T18:38:50.383Z,38.3
2019-06-08T18:40:50.553Z,37.8
2019-06-08T18:42:50.681Z,37.7
2019-06-08T18:44:49.929Z,37.7
2019-06-08T18:46:50.217Z,37.7
2019-06-08T18:48:50.422Z,37.7
2019-06-08T18:50:50.553Z,38.4
2019-06-08T18:52:50.698Z,38.4
2019-06-08T18:54:50.305Z,38.8
2019-06-08T18:56:50.507Z,40.4
2019-06-08T18:58:54.112Z,39.7
2019-06-08T19:00:52.008Z,39.9
2019-06-08T19:02:58.019Z,40.2
2019-06-08T19:04:50.486Z,40.5
2019-06-08T19:06:50.441Z,40.6
2019-06-08T19:08:51.428Z,41.1
2019-06-08T19:10:50.957Z,41.6
2019-06-08T19:12:51.097Z,41.5
2019-06-08T19:14:52.848Z,42.5
2019-06-08T19:16:58.373Z,43.1
2019-06-08T19:18:53.272Z,44.2
2019-06-08T19:20:54.083Z,43.9
2019-06-08T19:22:54.828Z,46.5
2019-06-08T19:24:51.241Z,47.7
2019-06-08T19:26:50.501Z,47.4
2019-06-08T19:28:54.754Z,47.5
2019-06-08T19:30:52.029Z,47.5
2019-06-08T19:32:52.902Z,48.3
2019-06-08T19:34:57.761Z,50.6
2019-06-08T19:36:57.545Z,49.6
2019-06-08T19:38:57.848Z,50.0
2019-06-08T19:40:50.046Z,50.3
2019-06-08T19:43:01.906Z,49.5
2019-06-08T19:45:09.005Z,50.2
2019-06-08T19:46:53.624Z,52.8
2019-06-08T19:48:59.342Z,52.8
2019-06-08T19:50:54.784Z,53.5
2019-06-08T19:52:53.925Z,53.5
2019-06-08T19:54:54.903Z,51.9
2019-06-08T19:56:57.808Z,51.9
2019-06-08T19:59:08.732Z,54.0
2019-06-08T20:00:59.107Z,53.1
2019-06-08T20:02:58.590Z,54.0
2019-06-08T20:04:50.171Z,54.3
2019-06-08T20:06:51.210Z,55.7
2019-06-08T20:08:51.947Z,56.1
2019-06-08T20:10:51.191Z,56.4
2019-06-08T20:12:51.302Z,57.2
2019-06-08T20:14:51.452Z,58.1
2019-06-08T20:16:51.232Z,59.1
2019-06-08T20:18:53.296Z,58.8
2019-06-08T20:20:54.856Z,59.5
2019-06-08T20:22:53.897Z,59.5
2019-06-08T20:24:56.269Z,60.1
2019-06-08T20:26:55.142Z,60.1
2019-06-08T20:29:16.642Z,60.1
2019-06-08T20:30:51.010Z,59.9
2019-06-08T20:32:54.761Z,61.2
2019-06-08T20:34:54.044Z,62.2
2019-06-08T20:36:51.117Z,62.0
2019-06-08T20:38:51.292Z,62.1
2019-06-08T20:40:50.567Z,64.3
2019-06-08T20:42:55.045Z,64.9
2019-06-08T20:44:53.451Z,64.8
2019-06-08T20:46:54.264Z,64.8
2019-06-08T20:48:53.452Z,65.5
2019-06-08T20:50:53.953Z,65.2
2019-06-08T20:52:54.162Z,65.4
2019-06-08T20:54:53.846Z,66.7
2019-06-08T20:56:53.780Z,66.8
2019-06-08T20:58:54.204Z,66.0
2019-06-08T21:00:54.447Z,67.0
2019-06-08T21:03:03.207Z,66.9
2019-06-08T21:04:59.697Z,67.0
2019-06-08T21:06:54.480Z,68.4
2019-06-08T21:08:59.598Z,69.9
2019-06-08T21:10:58.898Z,70.4
2019-06-08T21:12:59.030Z,71.3
2019-06-08T21:14:55.702Z,69.6
2019-06-08T21:16:53.572Z,71.3
2019-06-08T21:18:51.296Z,71.5
2019-06-08T21:20:51.548Z,71.5
2019-06-08T21:23:00.168Z,71.8
2019-06-08T21:25:00.371Z,71.2
2019-06-08T21:27:01.038Z,71.2
2019-06-08T21:29:00.727Z,71.1
2019-06-08T21:31:02.638Z,71.3
2019-06-08T21:33:01.078Z,72.5
2019-06-08T21:35:00.100Z,73.6
2019-06-08T21:37:01.041Z,73.7
2019-06-08T21:39:03.956Z,75.2
2019-06-08T21:41:03.154Z,75.2
2019-06-08T21:43:01.678Z,76.5
2019-06-08T21:45:02.241Z,75.3
2019-06-08T21:47:01.689Z,74.7
2019-06-08T21:48:56.113Z,75.1
2019-06-08T21:51:01.930Z,75.1
2019-06-08T21:52:59.016Z,75.7
2019-06-08T21:54:52.160Z,76.1
2019-06-08T21:56:54.934Z,76.2
2019-06-08T21:58:54.832Z,76.5
2019-06-08T22:00:52.826Z,76.5
2019-06-08T22:02:50.016Z,77.0
2019-06-08T22:05:04.950Z,77.8
2019-06-08T22:06:50.615Z,80.0
2019-06-08T22:08:50.652Z,80.4
2019-06-08T22:10:54.440Z,79.5
2019-06-08T22:13:01.044Z,79.3
2019-06-08T22:14:53.023Z,78.8
2019-06-08T22:17:01.318Z,79.7
2019-06-08T22:18:53.252Z,80.4
2019-06-08T22:20:53.467Z,80.6
2019-06-08T22:22:53.600Z,80.3
2019-06-08T22:24:53.757Z,80.3
2019-06-08T22:26:53.907Z,81.2
2019-06-08T22:28:53.520Z,80.8
2019-06-08T22:30:53.835Z,81.2
2019-06-08T22:32:49.848Z,82.3
2019-06-08T22:34:53.396Z,82.2
2019-06-08T22:36:54.379Z,82.5
2019-06-08T22:38:50.472Z,81.4
2019-06-08T22:40:50.660Z,82.1
2019-06-08T22:42:49.788Z,82.3
2019-06-08T22:44:49.887Z,83.5
2019-06-08T22:46:50.279Z,82.8
2019-06-08T22:48:50.414Z,82.8
2019-06-08T22:50:50.455Z,82.9
2019-06-08T22:52:50.589Z,83.7
2019-06-08T22:54:50.559Z,84.9
2019-06-08T22:56:49.792Z,84.8
2019-06-08T22:58:49.959Z,85.7
2019-06-08T23:01:07.486Z,85.8
2019-06-08T23:02:50.628Z,85.3
2019-06-08T23:04:50.258Z,85.4
2019-06-08T23:06:50.589Z,86.2
2019-06-08T23:08:50.688Z,86.2
2019-06-08T23:10:50.742Z,86.2
2019-06-08T23:12:49.914Z,86.0
2019-06-08T23:14:49.979Z,86.0
2019-06-08T23:16:50.359Z,87.4
2019-06-08T23:18:50.533Z,87.2
2019-06-08T23:20:50.572Z,87.3
2019-06-08T23:22:50.683Z,87.2
2019-06-08T23:24:49.841Z,87.1
2019-06-08T23:26:50.096Z,86.5
2019-06-08T23:28:50.261Z,87.2
2019-06-08T23:31:28.219Z,88.2
2019-06-08T23:32:50.681Z,88.3
2019-06-08T23:34:50.439Z,88.1
2019-06-08T23:37:12.545Z,88.7
2019-06-08T23:38:50.609Z,88.4
2019-06-08T23:40:50.735Z,88.5
2019-06-08T23:42:49.967Z,87.1
2019-06-08T23:44:50.140Z,87.6
2019-06-08T23:46:50.458Z,87.8
2019-06-08T23:48:50.663Z,88.2
2019-06-08T23:50:49.819Z,89.5
2019-06-08T23:52:49.887Z,89.0
2019-06-08T23:54:49.998Z,89.1
2019-06-08T23:56:50.113Z,89.5
2019-06-08T23:58:50.322Z,89.8
